LFRN 221630Z AUTO 20010KT 9999 BKN008 OVC012 11/10 Q1029 TEMPO 4000 DZ BKN004

ElémentsDécodage
LFRN Station météo située sur l'aérodrome de RENNES Saint-Jacques
221630Z émis le 22 du mois à 16h30 UTC
AUTO Bulletin édité par un automate
20010KT vent du 200°, 10 noeuds
9999 visibilité horizontale supérieure à 10 Km
BKN008 nuages morcelés (5/8 à 7/8) à 800 pieds
OVC012 couverture nuageuse totale (8/8) à 1200 pieds
11/10 température 11°C, point de rosée 10°C
 soit une humidité relative de 94%
Q1029 la pression au niveau de la mer (QNH) est de 1029 hPa
TEMPO fluctuation temporaire prévue
4000 visibilité horizontale de 4000 mètres
DZ bruine
BKN004 nuages morcelés (5/8 à 7/8) à 400 pieds